Time;durP1;ratioP1;P1;durP2;ratioP2;P2;SDS_P1;SDS_P2;PMS_P1;PMS_P2;Temp;Humidity;BMP_temperature;BMP_pressure;BME280_temperature;BME280_humidity;BME280_pressure;Samples;Min_cycle;Max_cycle;Signal;HPM_P1;HPM_P2
2023/09/04 00:01:02;;;;;;;5.25;3.30;;;14.60;99.90;;;;;;5004415;28;20046;-72
2023/09/04 00:03:28;;;;;;;4.80;3.08;;;14.50;99.90;;;;;;5002374;28;20133;-72
2023/09/04 00:05:54;;;;;;;4.90;3.70;;;14.60;99.90;;;;;;4998470;28;20031;-72
2023/09/04 00:08:20;;;;;;;7.03;3.60;;;14.50;99.90;;;;;;4997320;28;20085;-72
2023/09/04 00:10:46;;;;;;;5.70;3.28;;;14.50;99.90;;;;;;4993166;28;20048;-71
2023/09/04 00:13:12;;;;;;;6.15;3.60;;;14.50;99.90;;;;;;5003847;28;20033;-71
2023/09/04 00:15:38;;;;;;;6.80;3.53;;;14.50;99.90;;;;;;4987877;28;20046;-70
2023/09/04 00:18:04;;;;;;;5.10;3.65;;;14.50;99.90;;;;;;4992770;28;20543;-71
2023/09/04 00:20:30;;;;;;;4.30;2.83;;;14.50;99.90;;;;;;4985691;28;20125;-71
2023/09/04 00:22:56;;;;;;;4.10;2.75;;;14.50;99.90;;;;;;4985870;28;20137;-71
2023/09/04 00:25:22;;;;;;;4.75;2.97;;;14.50;99.90;;;;;;4995139;28;20032;-71
2023/09/04 00:27:48;;;;;;;4.30;2.83;;;14.50;99.90;;;;;;4974749;28;20525;-71
2023/09/04 00:30:14;;;;;;;5.00;3.15;;;14.50;99.90;;;;;;4985086;28;20538;-72
2023/09/04 00:32:40;;;;;;;3.47;2.85;;;14.40;99.90;;;;;;4995980;28;20034;-72
2023/09/04 00:35:07;;;;;;;5.32;3.80;;;14.40;99.90;;;;;;4986586;28;20514;-72
2023/09/04 00:37:32;;;;;;;3.75;2.40;;;14.40;99.90;;;;;;4999692;28;20037;-72
2023/09/04 00:39:58;;;;;;;4.72;2.85;;;14.30;99.90;;;;;;5000260;28;20084;-72
2023/09/04 00:42:23;;;;;;;3.80;2.50;;;14.30;99.90;;;;;;4967599;28;20073;-72
2023/09/04 00:44:52;;;;;;;4.80;2.92;;;14.30;99.90;;;;;;4986988;28;20528;-72
2023/09/04 00:47:21;;;;;;;4.82;3.25;;;14.30;99.90;;;;;;4992767;28;20137;-71
2023/09/04 00:49:47;;;;;;;4.68;3.05;;;14.30;99.90;;;;;;4983162;28;20046;-72
2023/09/04 00:52:13;;;;;;;5.57;3.17;;;14.30;99.90;;;;;;4983486;28;20047;-72
2023/09/04 00:54:42;;;;;;;5.80;3.40;;;14.30;99.90;;;;;;4966913;28;20122;-72
2023/09/04 00:57:09;;;;;;;4.65;3.20;;;14.20;99.90;;;;;;5000481;28;20803;-72
2023/09/04 00:59:35;;;;;;;4.20;2.63;;;14.20;99.90;;;;;;4990081;28;20064;-71
2023/09/04 01:02:01;;;;;;;4.00;2.20;;;14.20;99.90;;;;;;4998672;28;20124;-71
2023/09/04 01:04:27;;;;;;;4.40;2.55;;;14.20;99.90;;;;;;5001670;28;20049;-71
2023/09/04 01:06:53;;;;;;;4.63;3.05;;;14.20;99.90;;;;;;5002355;28;20470;-71
2023/09/04 01:09:20;;;;;;;4.10;2.85;;;14.20;99.90;;;;;;5002602;28;20736;-72
2023/09/04 01:11:55;;;;;;;3.75;2.80;;;14.20;99.90;;;;;;4977478;28;20121;-72
2023/09/04 01:14:23;;;;;;;4.72;2.92;;;14.20;99.90;;;;;;4982873;28;20138;-72
2023/09/04 01:16:49;;;;;;;3.92;3.13;;;14.20;99.90;;;;;;4972465;28;20435;-72
2023/09/04 01:19:17;;;;;;;3.78;2.83;;;14.20;99.90;;;;;;5006171;28;20052;-72
2023/09/04 01:21:43;;;;;;;4.38;2.88;;;14.20;99.90;;;;;;5006790;28;20084;-72
2023/09/04 01:24:09;;;;;;;5.85;3.63;;;14.20;99.90;;;;;;5007298;28;20050;-73
2023/09/04 01:26:40;;;;;;;6.30;3.90;;;14.20;99.90;;;;;;4990121;28;20041;-71
2023/09/04 01:29:27;;;;;;;5.00;3.20;;;14.20;99.90;;;;;;4990340;28;20124;-72
2023/09/04 01:32:03;;;;;;;6.20;3.42;;;14.20;99.90;;;;;;4979462;28;20054;-71
2023/09/04 01:34:32;;;;;;;5.32;3.63;;;14.20;99.90;;;;;;4969303;28;20062;-71
2023/09/04 01:36:58;;;;;;;4.93;3.00;;;14.10;99.90;;;;;;4953810;28;20090;-72
2023/09/04 01:39:25;;;;;;;5.45;3.13;;;14.10;99.90;;;;;;4987651;28;20049;-72
2023/09/04 01:41:51;;;;;;;6.55;2.85;;;14.10;99.90;;;;;;4987233;28;20050;-72
2023/09/04 01:44:16;;;;;;;5.28;3.30;;;14.10;99.90;;;;;;4969958;28;20132;-72
2023/09/04 01:46:42;;;;;;;8.38;3.63;;;14.10;99.90;;;;;;4987140;28;20109;-72
2023/09/04 01:49:08;;;;;;;4.93;3.47;;;14.00;99.90;;;;;;4987970;28;20089;-72
2023/09/04 01:51:34;;;;;;;6.97;4.00;;;14.10;99.90;;;;;;4987973;28;20046;-72
2023/09/04 01:54:00;;;;;;;7.03;3.63;;;14.10;99.90;;;;;;4969428;28;20548;-72
2023/09/04 01:56:25;;;;;;;6.63;3.60;;;14.10;99.90;;;;;;4950525;28;20078;-71
2023/09/04 01:58:51;;;;;;;9.88;5.10;;;14.00;99.90;;;;;;4967686;28;20035;-72
2023/09/04 02:01:16;;;;;;;5.53;3.83;;;14.00;99.90;;;;;;4950826;28;20058;-71
2023/09/04 02:03:56;;;;;;;5.97;4.10;;;14.00;99.90;;;;;;4973679;28;20129;-72
2023/09/04 02:06:27;;;;;;;7.75;4.18;;;14.00;99.90;;;;;;5006224;28;20045;-71
2023/09/04 02:08:52;;;;;;;5.85;4.05;;;14.00;99.90;;;;;;5005018;28;20050;-72
2023/09/04 02:11:18;;;;;;;6.57;3.75;;;14.00;99.90;;;;;;5005793;28;20054;-72
2023/09/04 02:13:47;;;;;;;5.55;3.67;;;13.90;99.90;;;;;;5006425;28;20034;-72
2023/09/04 02:16:13;;;;;;;4.88;3.90;;;14.00;99.90;;;;;;5005871;28;20099;-72
2023/09/04 02:18:39;;;;;;;7.60;4.05;;;14.00;99.90;;;;;;5005807;28;20478;-72
2023/09/04 02:21:06;;;;;;;6.90;4.40;;;14.00;99.90;;;;;;5006452;28;20084;-72
2023/09/04 02:23:32;;;;;;;6.78;4.05;;;14.00;99.90;;;;;;5005232;28;20045;-72
2023/09/04 02:25:58;;;;;;;7.00;4.00;;;14.00;99.90;;;;;;5005513;28;20046;-71
2023/09/04 02:28:24;;;;;;;8.07;4.72;;;14.00;99.90;;;;;;5004062;28;20034;-72
2023/09/04 02:30:50;;;;;;;8.30;5.18;;;13.90;99.90;;;;;;4988591;28;20037;-72
2023/09/04 02:33:15;;;;;;;6.18;4.22;;;14.00;99.90;;;;;;5004803;28;20122;-71
2023/09/04 02:35:41;;;;;;;7.30;4.20;;;14.00;99.90;;;;;;5004583;28;20084;-72
2023/09/04 02:38:07;;;;;;;8.38;4.22;;;13.90;99.90;;;;;;5004375;28;20050;-72
2023/09/04 02:40:33;;;;;;;7.82;4.85;;;13.90;99.90;;;;;;5005597;28;20064;-72
2023/09/04 02:42:59;;;;;;;8.00;4.55;;;13.90;99.90;;;;;;5005681;28;20050;-72
2023/09/04 02:45:25;;;;;;;7.22;4.95;;;13.90;99.90;;;;;;5005715;28;20038;-72
2023/09/04 02:47:50;;;;;;;8.30;4.68;;;13.90;99.90;;;;;;5003235;28;20054;-72
2023/09/04 02:50:16;;;;;;;7.88;4.50;;;13.90;99.90;;;;;;5005682;28;20556;-72
2023/09/04 02:52:42;;;;;;;7.78;4.22;;;13.80;99.90;;;;;;5005520;28;20049;-71
2023/09/04 02:55:08;;;;;;;5.38;3.72;;;13.80;99.90;;;;;;5004201;28;20038;-72
2023/09/04 02:57:34;;;;;;;8.25;4.93;;;13.80;99.90;;;;;;5006066;28;20053;-71
2023/09/04 03:00:01;;;;;;;7.93;4.63;;;13.70;99.90;;;;;;5005296;28;20607;-71
2023/09/04 03:02:27;;;;;;;7.72;5.10;;;13.80;99.90;;;;;;5004458;28;20057;-71
2023/09/04 03:04:56;;;;;;;6.75;4.40;;;13.80;99.90;;;;;;5004987;28;20045;-71
2023/09/04 03:07:26;;;;;;;6.55;3.92;;;13.70;99.90;;;;;;5011678;28;20349;-71
2023/09/04 03:09:59;;;;;;;9.23;4.95;;;13.70;99.90;;;;;;4997982;28;20132;-72
2023/09/04 03:12:27;;;;;;;7.05;4.35;;;13.70;99.90;;;;;;5003533;28;20719;-72
2023/09/04 03:14:56;;;;;;;9.27;4.00;;;13.70;99.90;;;;;;5005604;28;20112;-72
2023/09/04 03:17:23;;;;;;;6.53;4.22;;;13.70;99.90;;;;;;5003525;28;20046;-71
2023/09/04 03:19:53;;;;;;;7.40;4.18;;;13.70;99.90;;;;;;5005128;28;20128;-71
2023/09/04 03:22:19;;;;;;;7.55;4.28;;;13.70;99.90;;;;;;5004785;28;20077;-71
2023/09/04 03:24:45;;;;;;;5.95;4.07;;;13.70;99.90;;;;;;5005012;28;20467;-72
2023/09/04 03:27:11;;;;;;;7.35;4.50;;;13.70;99.90;;;;;;5004856;28;20053;-71
2023/09/04 03:29:37;;;;;;;6.78;4.13;;;13.70;99.90;;;;;;5005018;28;20046;-71
2023/09/04 03:32:03;;;;;;;7.72;3.63;;;13.70;99.90;;;;;;5004975;28;20377;-72
2023/09/04 03:34:29;;;;;;;5.90;4.07;;;13.60;99.90;;;;;;5002271;28;20045;-72
2023/09/04 03:36:55;;;;;;;8.20;3.70;;;13.60;99.90;;;;;;5004932;28;20034;-71
2023/09/04 03:39:21;;;;;;;6.22;3.58;;;13.60;99.90;;;;;;5003705;28;20037;-71
2023/09/04 03:41:47;;;;;;;8.23;3.97;;;13.60;99.90;;;;;;5004487;28;20041;-72
2023/09/04 03:44:14;;;;;;;5.63;3.50;;;13.50;99.90;;;;;;5004554;28;20052;-71
2023/09/04 03:46:40;;;;;;;6.40;3.47;;;13.50;99.90;;;;;;5004117;28;20496;-72
2023/09/04 03:49:05;;;;;;;5.95;3.90;;;13.50;99.90;;;;;;5003933;28;20041;-71
2023/09/04 03:51:31;;;;;;;9.20;3.85;;;13.50;99.90;;;;;;5004001;28;20530;-72
2023/09/04 03:54:01;;;;;;;5.13;3.60;;;13.50;99.90;;;;;;5004213;28;20476;-71
2023/09/04 03:56:27;;;;;;;5.60;3.17;;;13.50;99.90;;;;;;5004504;28;20556;-71
2023/09/04 03:58:53;;;;;;;7.85;3.92;;;13.50;99.90;;;;;;5004394;28;20061;-71
2023/09/04 04:01:19;;;;;;;5.93;3.42;;;13.50;99.90;;;;;;5003010;28;20049;-71
2023/09/04 04:03:44;;;;;;;4.50;3.45;;;13.50;99.90;;;;;;5002867;28;20049;-72
2023/09/04 04:06:13;;;;;;;4.93;3.45;;;13.40;99.90;;;;;;5003816;28;20091;-71
2023/09/04 04:08:39;;;;;;;5.13;3.35;;;13.40;99.90;;;;;;5003879;28;20068;-72
2023/09/04 04:11:06;;;;;;;4.50;2.88;;;13.40;99.90;;;;;;5004369;28;20042;-71
2023/09/04 04:13:33;;;;;;;5.22;2.95;;;13.40;99.90;;;;;;5004085;28;20132;-71
2023/09/04 04:15:59;;;;;;;5.72;3.58;;;13.40;99.90;;;;;;5003739;28;20683;-72
2023/09/04 04:18:26;;;;;;;7.05;3.70;;;13.40;99.90;;;;;;5002892;28;20077;-71
2023/09/04 04:20:53;;;;;;;6.63;3.95;;;13.40;99.90;;;;;;5004319;28;20046;-71
2023/09/04 04:23:19;;;;;;;6.53;3.50;;;13.40;99.90;;;;;;5002785;28;20046;-72
2023/09/04 04:25:44;;;;;;;5.07;2.90;;;13.40;99.90;;;;;;5002388;28;20507;-71
2023/09/04 04:28:10;;;;;;;5.32;3.13;;;13.40;99.90;;;;;;5003372;28;20041;-72
2023/09/04 04:30:36;;;;;;;7.20;4.32;;;13.40;99.90;;;;;;5003580;28;20129;-71
2023/09/04 04:33:02;;;;;;;6.65;3.45;;;13.30;99.90;;;;;;5002323;28;20046;-71
2023/09/04 04:35:28;;;;;;;5.00;3.08;;;13.30;99.90;;;;;;5003866;28;20038;-71
2023/09/04 04:37:53;;;;;;;6.68;3.35;;;13.30;99.90;;;;;;5000496;28;20046;-71
2023/09/04 04:40:23;;;;;;;6.15;2.78;;;13.40;99.90;;;;;;5001324;28;20451;-71
2023/09/04 04:42:51;;;;;;;6.22;3.50;;;13.30;99.90;;;;;;4999937;28;20045;-71
2023/09/04 04:45:23;;;;;;;4.57;3.17;;;13.30;99.90;;;;;;4998142;28;20044;-71
2023/09/04 04:47:49;;;;;;;4.18;3.15;;;13.30;99.90;;;;;;4998005;28;20143;-71
2023/09/04 04:50:15;;;;;;;5.32;3.00;;;13.30;99.90;;;;;;5001996;28;20573;-72
2023/09/04 04:52:41;;;;;;;5.53;2.97;;;13.30;99.90;;;;;;4990284;28;20046;-72
2023/09/04 04:55:07;;;;;;;4.43;2.75;;;13.30;99.90;;;;;;5004064;28;20048;-71
2023/09/04 04:57:36;;;;;;;5.57;3.35;;;13.20;99.90;;;;;;5003111;28;20042;-71
2023/09/04 05:00:06;;;;;;;5.78;3.63;;;13.20;99.90;;;;;;5003155;28;20034;-71
2023/09/04 05:02:32;;;;;;;6.97;4.25;;;13.30;99.90;;;;;;5001207;28;20053;-71
2023/09/04 05:04:58;;;;;;;5.22;3.92;;;13.30;99.90;;;;;;5003354;28;20522;-71
2023/09/04 05:07:24;;;;;;;5.78;3.42;;;13.20;99.90;;;;;;5003157;28;20073;-71
2023/09/04 05:09:53;;;;;;;4.95;3.30;;;13.20;99.90;;;;;;5003053;28;20478;-72
2023/09/04 05:12:19;;;;;;;8.48;4.22;;;13.30;99.90;;;;;;5001901;28;20060;-72
2023/09/04 05:14:45;;;;;;;6.90;2.72;;;13.30;99.90;;;;;;5001509;28;20046;-71
2023/09/04 05:17:10;;;;;;;4.88;3.60;;;13.30;99.90;;;;;;5002146;28;20428;-72
2023/09/04 05:19:36;;;;;;;5.03;3.13;;;13.30;99.90;;;;;;5003446;28;20488;-71
2023/09/04 05:22:01;;;;;;;8.73;3.85;;;13.30;99.90;;;;;;5001888;28;20045;-71
2023/09/04 05:24:27;;;;;;;5.30;2.80;;;13.30;99.90;;;;;;5000887;28;20072;-71
2023/09/04 05:26:53;;;;;;;6.07;3.33;;;13.30;99.90;;;;;;4995529;28;20053;-71
2023/09/04 05:29:19;;;;;;;4.28;2.75;;;13.30;99.90;;;;;;5001132;28;20491;-71
2023/09/04 05:31:45;;;;;;;4.75;2.88;;;13.30;99.90;;;;;;4984999;28;20187;-72
2023/09/04 05:34:10;;;;;;;5.38;3.60;;;13.30;99.90;;;;;;5001218;28;20136;-72
2023/09/04 05:36:36;;;;;;;5.20;3.20;;;13.30;99.90;;;;;;5002960;28;20080;-71
2023/09/04 05:39:02;;;;;;;5.45;3.10;;;13.40;99.90;;;;;;5002918;28;20124;-71
2023/09/04 05:41:28;;;;;;;4.35;2.92;;;13.40;99.90;;;;;;5002503;28;20053;-72
2023/09/04 05:43:54;;;;;;;4.60;3.05;;;13.40;99.90;;;;;;5002483;28;20588;-72
2023/09/04 05:46:19;;;;;;;4.90;3.17;;;13.50;99.90;;;;;;5002039;28;20129;-71
2023/09/04 05:48:45;;;;;;;5.10;3.35;;;13.50;99.90;;;;;;5001559;28;20408;-71
2023/09/04 05:51:10;;;;;;;7.53;3.60;;;13.50;99.90;;;;;;4994717;28;20038;-71
2023/09/04 05:53:36;;;;;;;4.40;2.92;;;13.50;99.90;;;;;;5002902;28;20534;-71
2023/09/04 05:56:07;;;;;;;4.30;2.58;;;13.50;99.90;;;;;;5002787;28;20038;-71
2023/09/04 05:58:33;;;;;;;4.97;2.75;;;13.50;99.90;;;;;;4984651;28;20046;-71
2023/09/04 06:00:59;;;;;;;6.18;4.22;;;13.60;99.90;;;;;;5003237;28;20138;-71
2023/09/04 06:03:26;;;;;;;4.75;3.45;;;13.60;99.90;;;;;;5003767;28;20069;-71
2023/09/04 06:05:51;;;;;;;6.25;3.78;;;13.70;99.90;;;;;;5005255;28;20068;-71
2023/09/04 06:08:17;;;;;;;6.43;3.90;;;13.70;99.90;;;;;;5004454;28;20669;-71
2023/09/04 06:10:43;;;;;;;6.47;3.97;;;13.70;99.90;;;;;;5006233;28;20117;-70
2023/09/04 06:13:09;;;;;;;7.03;3.38;;;13.70;99.90;;;;;;5006040;28;20679;-72
2023/09/04 06:15:34;;;;;;;6.70;3.30;;;13.70;99.90;;;;;;5006597;28;20373;-71
2023/09/04 06:18:00;;;;;;;9.07;3.20;;;13.80;99.90;;;;;;5005093;28;20475;-71
2023/09/04 06:20:26;;;;;;;5.35;3.53;;;13.80;99.90;;;;;;5009545;28;20038;-71
2023/09/04 06:22:51;;;;;;;5.95;3.58;;;13.80;99.90;;;;;;5006124;28;20034;-71
2023/09/04 06:25:17;;;;;;;5.85;3.97;;;13.90;99.90;;;;;;5005754;28;20037;-71
2023/09/04 06:27:43;;;;;;;6.18;4.00;;;13.90;99.90;;;;;;5005419;28;20046;-72
2023/09/04 06:30:09;;;;;;;6.50;4.30;;;13.90;99.90;;;;;;5005967;28;20128;-73
2023/09/04 06:32:34;;;;;;;6.82;3.95;;;13.90;99.90;;;;;;5003780;28;20479;-71
2023/09/04 06:35:00;;;;;;;6.97;4.22;;;14.00;99.90;;;;;;5004776;28;20058;-70
2023/09/04 06:37:26;;;;;;;7.97;4.07;;;14.00;99.90;;;;;;4997100;28;20065;-70
2023/09/04 06:39:51;;;;;;;7.53;4.00;;;14.10;99.90;;;;;;5004937;28;20503;-71
2023/09/04 06:42:17;;;;;;;5.80;3.72;;;14.10;99.90;;;;;;5005203;28;20042;-72
2023/09/04 06:44:43;;;;;;;8.90;4.20;;;14.20;99.90;;;;;;5003968;28;20107;-71
2023/09/04 06:47:09;;;;;;;6.35;3.55;;;14.20;99.90;;;;;;5003830;28;20053;-72
2023/09/04 06:49:35;;;;;;;8.88;4.25;;;14.30;99.90;;;;;;5005101;28;20050;-71
2023/09/04 06:52:00;;;;;;;6.28;3.90;;;14.30;99.90;;;;;;4992348;28;20215;-71
2023/09/04 06:54:26;;;;;;;6.85;3.85;;;14.40;99.90;;;;;;5003855;28;20042;-71
2023/09/04 06:56:52;;;;;;;7.53;3.75;;;14.40;99.90;;;;;;4992493;28;20122;-71
2023/09/04 06:59:17;;;;;;;8.68;4.60;;;14.40;99.90;;;;;;5005256;28;20045;-71
2023/09/04 07:01:43;;;;;;;9.45;4.93;;;14.50;99.90;;;;;;5002845;28;20114;-70
2023/09/04 07:04:08;;;;;;;8.05;4.68;;;14.60;99.90;;;;;;5002471;28;20746;-72
2023/09/04 07:06:34;;;;;;;7.80;3.97;;;14.60;99.90;;;;;;5005606;28;20041;-72
2023/09/04 07:09:00;;;;;;;7.75;4.18;;;14.70;99.90;;;;;;5004680;28;20495;-70
2023/09/04 07:11:25;;;;;;;16.52;4.90;;;14.70;99.90;;;;;;5004193;28;20052;-71
2023/09/04 07:13:52;;;;;;;7.25;4.05;;;14.70;99.90;;;;;;5003303;28;20496;-71
2023/09/04 07:16:18;;;;;;;8.75;5.43;;;14.80;99.90;;;;;;5005314;28;20038;-70
2023/09/04 07:18:43;;;;;;;8.65;4.65;;;14.80;99.90;;;;;;5001624;28;20037;-72
2023/09/04 07:21:09;;;;;;;9.05;4.97;;;14.90;99.90;;;;;;5002210;28;20745;-72
2023/09/04 07:23:34;;;;;;;10.02;5.13;;;15.00;99.90;;;;;;5004357;28;20060;-72
2023/09/04 07:26:01;;;;;;;10.60;5.10;;;15.00;99.90;;;;;;5002238;28;20053;-71
2023/09/04 07:28:27;;;;;;;10.20;5.35;;;15.10;99.90;;;;;;5004262;28;20193;-72
2023/09/04 07:31:13;;;;;;;8.10;4.47;;;15.10;99.90;;;;;;5003110;28;20132;-71
2023/09/04 07:33:39;;;;;;;8.02;4.88;;;15.10;99.90;;;;;;5004649;28;20096;-73
2023/09/04 07:36:05;;;;;;;8.30;4.80;;;15.20;99.90;;;;;;5003247;28;20077;-72
2023/09/04 07:38:31;;;;;;;8.88;4.80;;;15.20;99.90;;;;;;5003437;28;20088;-72
2023/09/04 07:41:03;;;;;;;7.35;4.63;;;15.30;99.90;;;;;;5004654;28;20042;-72
2023/09/04 07:43:31;;;;;;;8.65;5.28;;;15.30;99.90;;;;;;5004228;28;20504;-72
2023/09/04 07:45:56;;;;;;;9.45;5.32;;;15.40;99.90;;;;;;5001509;28;20044;-72
2023/09/04 07:48:22;;;;;;;6.97;4.32;;;15.40;99.90;;;;;;5003790;28;20041;-72
2023/09/04 07:50:54;;;;;;;8.32;4.90;;;15.50;99.90;;;;;;5002508;28;20096;-72
2023/09/04 07:53:20;;;;;;;9.15;5.35;;;15.50;99.90;;;;;;5004135;28;20503;-73
2023/09/04 07:55:47;;;;;;;5.68;4.03;;;15.60;99.90;;;;;;4992770;28;20409;-72
2023/09/04 07:58:13;;;;;;;7.63;4.13;;;15.70;99.90;;;;;;5004153;28;20535;-73
2023/09/04 08:00:50;;;;;;;7.20;4.30;;;15.70;99.90;;;;;;5003650;28;20037;-73
2023/09/04 08:03:16;;;;;;;5.05;3.63;;;15.70;99.90;;;;;;5016813;28;20088;-72
2023/09/04 08:05:42;;;;;;;8.15;4.05;;;15.70;99.90;;;;;;5001542;28;20038;-72
2023/09/04 08:08:10;;;;;;;5.35;3.00;;;15.80;99.90;;;;;;5002835;28;20058;-72
2023/09/04 08:10:41;;;;;;;5.22;3.90;;;15.80;99.90;;;;;;5003208;28;20088;-73
2023/09/04 08:13:09;;;;;;;5.53;3.33;;;15.90;99.90;;;;;;5003819;28;20046;-73
2023/09/04 08:15:35;;;;;;;6.93;3.88;;;15.90;99.90;;;;;;4986185;28;20030;-73
2023/09/04 08:18:00;;;;;;;4.55;3.03;;;16.00;99.90;;;;;;5001415;28;20111;-72
2023/09/04 08:20:26;;;;;;;6.57;3.10;;;16.10;99.90;;;;;;5001067;28;20057;-72
2023/09/04 08:22:52;;;;;;;5.00;3.53;;;16.10;99.90;;;;;;5002765;28;20038;-72
2023/09/04 08:25:17;;;;;;;5.68;3.03;;;16.10;99.90;;;;;;5000984;28;20038;-72
2023/09/04 08:27:43;;;;;;;4.00;2.72;;;16.10;99.90;;;;;;5003462;28;20429;-72
2023/09/04 08:30:09;;;;;;;3.72;2.55;;;16.20;99.90;;;;;;5002914;28;20049;-81
2023/09/04 08:32:35;;;;;;;3.42;2.97;;;16.20;99.90;;;;;;4984052;28;20069;-82
2023/09/04 08:35:00;;;;;;;3.13;2.53;;;16.30;99.90;;;;;;4983063;28;20358;-81
2023/09/04 08:37:26;;;;;;;4.65;2.55;;;16.30;99.90;;;;;;4999796;28;20060;-73
2023/09/04 08:39:51;;;;;;;3.75;2.35;;;16.30;99.90;;;;;;5003007;28;20314;-73
2023/09/04 08:42:17;;;;;;;4.18;2.63;;;16.40;99.90;;;;;;5004141;28;20037;-73
2023/09/04 08:44:43;;;;;;;3.25;2.63;;;16.40;99.90;;;;;;4992259;28;20069;-73
2023/09/04 08:47:09;;;;;;;5.07;2.90;;;16.50;99.90;;;;;;4998450;28;20144;-75
2023/09/04 08:49:37;;;;;;;4.43;2.38;;;16.60;99.90;;;;;;5003344;28;20045;-73
2023/09/04 08:52:05;;;;;;;4.95;2.78;;;16.60;99.90;;;;;;5002749;28;20253;-73
2023/09/04 08:54:33;;;;;;;3.47;2.65;;;16.70;99.90;;;;;;4987121;28;20092;-73
2023/09/04 08:56:59;;;;;;;6.78;2.78;;;16.70;99.90;;;;;;5006255;28;20427;-72
2023/09/04 08:59:25;;;;;;;4.40;2.70;;;16.70;99.90;;;;;;4994666;28;20049;-73
2023/09/04 09:01:53;;;;;;;3.95;2.05;;;16.80;99.90;;;;;;4994055;28;20046;-73
2023/09/04 09:04:20;;;;;;;3.13;2.42;;;16.80;99.90;;;;;;5002334;28;20425;-73
2023/09/04 09:06:48;;;;;;;4.93;2.92;;;16.90;99.90;;;;;;4985402;28;20046;-73
2023/09/04 09:09:16;;;;;;;6.07;2.38;;;16.90;99.90;;;;;;4996068;28;20096;-72
2023/09/04 09:11:42;;;;;;;5.68;2.42;;;17.00;99.90;;;;;;4997781;28;20037;-73
2023/09/04 09:14:08;;;;;;;4.45;2.40;;;17.00;99.90;;;;;;4995630;28;20120;-72
2023/09/04 09:16:34;;;;;;;2.88;1.98;;;17.10;99.90;;;;;;5001786;28;20038;-72
2023/09/04 09:19:01;;;;;;;3.08;2.58;;;17.10;99.90;;;;;;5000969;28;20041;-73
2023/09/04 09:21:29;;;;;;;5.07;2.95;;;17.20;99.90;;;;;;5000704;28;20048;-73
2023/09/04 09:24:18;;;;;;;4.13;2.33;;;17.30;99.90;;;;;;5001232;28;20322;-73
2023/09/04 09:26:46;;;;;;;3.63;2.60;;;17.30;99.90;;;;;;4980986;28;20536;-73
2023/09/04 09:29:13;;;;;;;2.53;2.10;;;17.30;99.90;;;;;;5001635;28;20050;-73
2023/09/04 09:31:41;;;;;;;3.45;2.17;;;17.40;99.90;;;;;;5001402;28;20066;-73
2023/09/04 09:34:07;;;;;;;2.85;1.73;;;17.40;99.90;;;;;;5002678;28;20065;-72
2023/09/04 09:36:33;;;;;;;2.53;1.85;;;17.40;99.90;;;;;;5003433;28;20527;-73
2023/09/04 09:38:59;;;;;;;4.50;2.40;;;17.50;99.90;;;;;;5004094;28;20341;-72
2023/09/04 09:41:28;;;;;;;2.88;2.10;;;17.60;99.90;;;;;;5001561;28;20046;-72
2023/09/04 09:43:53;;;;;;;3.63;1.60;;;17.60;99.90;;;;;;5005860;28;20111;-73
2023/09/04 09:46:20;;;;;;;2.78;2.03;;;17.60;99.90;;;;;;4986097;28;20046;-72
2023/09/04 09:48:46;;;;;;;3.53;2.35;;;17.70;99.90;;;;;;5005611;28;20176;-72
2023/09/04 09:51:15;;;;;;;4.40;2.17;;;17.70;99.90;;;;;;5003841;28;20029;-73
2023/09/04 09:53:48;;;;;;;2.60;2.13;;;17.80;99.90;;;;;;4988233;28;20045;-72
2023/09/04 09:56:16;;;;;;;2.70;1.88;;;17.90;99.90;;;;;;5006556;28;20050;-72
2023/09/04 09:58:43;;;;;;;2.75;2.15;;;17.90;99.90;;;;;;5004924;28;20125;-72
2023/09/04 10:01:09;;;;;;;3.83;2.00;;;17.90;99.90;;;;;;5002730;28;20092;-74
2023/09/04 10:03:36;;;;;;;2.53;2.05;;;18.00;99.90;;;;;;5005904;28;20038;-72
2023/09/04 10:06:06;;;;;;;2.25;1.90;;;18.00;99.90;;;;;;5003965;28;20033;-72
2023/09/04 10:08:42;;;;;;;3.10;1.83;;;18.00;99.90;;;;;;5003736;28;20050;-70
2023/09/04 10:11:12;;;;;;;2.05;1.67;;;18.10;99.90;;;;;;5004543;28;20508;-70
2023/09/04 10:13:45;;;;;;;3.97;2.05;;;18.10;99.90;;;;;;5004195;28;20041;-70
2023/09/04 10:16:15;;;;;;;2.85;2.40;;;18.20;99.90;;;;;;5004511;28;20481;-71
2023/09/04 10:18:46;;;;;;;1.90;1.60;;;18.20;99.90;;;;;;5003521;28;20049;-71
2023/09/04 10:21:16;;;;;;;2.17;1.50;;;18.30;99.90;;;;;;5004980;28;20109;-71
2023/09/04 10:23:52;;;;;;;2.05;1.60;;;18.30;99.90;;;;;;5005047;28;20132;-71
2023/09/04 10:26:27;;;;;;;3.53;2.08;;;18.30;99.90;;;;;;5003987;28;20042;-70
2023/09/04 10:29:03;;;;;;;2.95;1.85;;;18.30;99.90;;;;;;5003845;28;20054;-71
2023/09/04 10:31:32;;;;;;;2.55;1.42;;;18.30;99.90;;;;;;5004716;28;20046;-71
2023/09/04 10:34:00;;;;;;;2.78;1.80;;;18.30;99.90;;;;;;5005670;28;20100;-71
2023/09/04 10:36:28;;;;;;;3.50;1.60;;;18.30;99.90;;;;;;5004024;28;20034;-70
2023/09/04 10:38:54;;;;;;;1.55;1.38;;;18.40;99.90;;;;;;5004336;28;20057;-71
2023/09/04 10:41:20;;;;;;;1.90;1.58;;;18.40;99.90;;;;;;5003387;28;20049;-71
2023/09/04 10:43:46;;;;;;;2.40;2.00;;;18.40;99.90;;;;;;4992369;28;20077;-72
2023/09/04 10:46:13;;;;;;;2.83;1.55;;;18.50;99.90;;;;;;5006060;28;20069;-72
2023/09/04 10:48:50;;;;;;;2.40;1.67;;;18.50;99.90;;;;;;5004637;28;20104;-72
2023/09/04 10:51:35;;;;;;;4.47;1.42;;;18.50;99.90;;;;;;5003033;28;20046;-72
2023/09/04 10:54:07;;;;;;;2.17;1.80;;;18.60;99.90;;;;;;5002148;28;20069;-71
2023/09/04 10:56:56;;;;;;;1.48;1.20;;;18.60;99.90;;;;;;4995676;28;20045;-71
2023/09/04 10:59:22;;;;;;;2.35;1.77;;;18.70;99.90;;;;;;5004344;28;20050;-72
2023/09/04 11:01:47;;;;;;;4.07;2.03;;;18.70;99.90;;;;;;5002723;28;20061;-72
2023/09/04 11:04:34;;;;;;;2.50;1.73;;;18.80;99.90;;;;;;5002419;28;20449;-72
2023/09/04 11:07:34;;;;;;;3.67;1.80;;;18.80;99.90;;;;;;4995857;28;20046;-71
2023/09/04 11:10:16;;;;;;;1.88;1.65;;;18.80;99.90;;;;;;4992049;28;20599;-71
2023/09/04 11:12:44;;;;;;;2.60;1.85;;;18.80;99.90;;;;;;5003550;28;20054;-74
2023/09/04 11:15:11;;;;;;;1.95;1.75;;;18.80;99.90;;;;;;5004934;28;20081;-73
2023/09/04 11:17:40;;;;;;;1.55;1.45;;;18.80;99.90;;;;;;5003164;28;20042;-73
2023/09/04 11:20:06;;;;;;;2.35;1.52;;;18.80;99.90;;;;;;5003827;28;20052;-74
2023/09/04 11:22:33;;;;;;;2.50;1.60;;;18.80;99.90;;;;;;4997781;28;20095;-74
2023/09/04 11:24:59;;;;;;;2.20;1.67;;;18.80;99.90;;;;;;4984214;28;20735;-73
2023/09/04 11:27:25;;;;;;;2.03;1.60;;;18.80;99.90;;;;;;4987782;28;20097;-72
2023/09/04 11:29:52;;;;;;;1.73;1.58;;;18.80;99.90;;;;;;5000889;28;20412;-74
2023/09/04 11:32:19;;;;;;;2.85;2.25;;;18.90;99.90;;;;;;5001796;28;20064;-74
2023/09/04 11:34:51;;;;;;;2.25;1.70;;;19.00;99.90;;;;;;4987071;28;20050;-74
2023/09/04 11:37:17;;;;;;;2.35;2.10;;;19.00;99.90;;;;;;5002797;28;20192;-74
2023/09/04 11:39:57;;;;;;;1.75;1.50;;;19.00;99.90;;;;;;5004756;28;20125;-73
2023/09/04 11:42:24;;;;;;;2.33;1.65;;;19.00;99.90;;;;;;5004483;28;20041;-73
2023/09/04 11:44:50;;;;;;;2.15;1.90;;;19.00;99.90;;;;;;5003500;28;20680;-74
2023/09/04 11:47:17;;;;;;;2.92;1.60;;;19.00;99.90;;;;;;5001121;28;20448;-74
2023/09/04 11:49:43;;;;;;;1.70;1.60;;;19.00;99.90;;;;;;4993546;28;20108;-74
2023/09/04 11:52:10;;;;;;;2.10;1.38;;;19.10;99.90;;;;;;4989555;28;20177;-73
2023/09/04 11:54:36;;;;;;;1.65;1.48;;;19.20;99.90;;;;;;4998217;28;20049;-73
2023/09/04 11:57:05;;;;;;;1.50;1.40;;;19.20;99.90;;;;;;5004329;28;20044;-73
2023/09/04 11:59:38;;;;;;;4.07;1.33;;;19.20;99.90;;;;;;5007128;28;20038;-74
2023/09/04 12:02:05;;;;;;;1.73;1.63;;;19.30;99.90;;;;;;5002398;28;20042;-72
2023/09/04 12:04:32;;;;;;;2.15;1.83;;;19.30;99.90;;;;;;5003818;28;20054;-72
2023/09/04 12:07:06;;;;;;;2.10;1.60;;;19.30;99.90;;;;;;5003862;28;20042;-74
2023/09/04 12:09:34;;;;;;;1.60;1.38;;;19.30;99.90;;;;;;4992987;28;20600;-72
2023/09/04 12:12:04;;;;;;;2.92;1.30;;;19.50;99.90;;;;;;4998164;28;20049;-74
2023/09/04 12:14:30;;;;;;;4.03;2.45;;;19.50;99.90;;;;;;5003007;28;20488;-73
2023/09/04 12:16:55;;;;;;;2.35;1.65;;;19.50;99.90;;;;;;4992884;28;20072;-72
2023/09/04 12:19:23;;;;;;;2.95;1.63;;;19.60;99.90;;;;;;5002042;28;20058;-73
2023/09/04 12:21:49;;;;;;;1.65;1.55;;;19.60;99.90;;;;;;5002136;28;20068;-73
2023/09/04 12:24:16;;;;;;;3.75;1.95;;;19.60;99.90;;;;;;5013021;28;20034;-73
2023/09/04 12:26:43;;;;;;;2.42;1.77;;;19.70;99.90;;;;;;5002107;28;20048;-73
2023/09/04 12:29:11;;;;;;;1.58;1.48;;;19.70;99.90;;;;;;5002435;28;20096;-73
2023/09/04 12:31:37;;;;;;;3.22;1.58;;;19.80;99.90;;;;;;5002151;28;20034;-73
2023/09/04 12:34:04;;;;;;;2.15;1.92;;;19.90;99.90;;;;;;5001210;28;20064;-74
2023/09/04 12:36:31;;;;;;;2.28;1.73;;;19.90;99.90;;;;;;5003180;28;20042;-74
2023/09/04 12:38:57;;;;;;;2.42;1.75;;;19.90;99.90;;;;;;5016595;28;20057;-73
2023/09/04 12:41:23;;;;;;;2.25;1.40;;;20.00;99.90;;;;;;4991095;28;20084;-74
2023/09/04 12:43:48;;;;;;;1.48;1.38;;;20.00;99.90;;;;;;4991970;28;20041;-74
2023/09/04 12:46:14;;;;;;;1.70;1.60;;;20.10;99.90;;;;;;5003274;28;20493;-74